Time;durP1;ratioP1;P1;durP2;ratioP2;P2;SDS_P1;SDS_P2;PMS_P1;PMS_P2;Temp;Humidity;BMP_temperature;BMP_pressure;BME280_temperature;BME280_humidity;BME280_pressure;Samples;Min_cycle;Max_cycle;Signal;HPM_P1;HPM_P2
2024/01/05 00:02:20;;;;;;;3.92;1.13;;;6.70;99.90;;;;;;5014264;28;20029;-81
2024/01/05 00:04:46;;;;;;;11.40;1.30;;;6.70;99.90;;;;;;5014533;28;20055;-80
2024/01/05 00:07:18;;;;;;;5.97;1.10;;;6.70;99.90;;;;;;5014522;28;20034;-82
2024/01/05 00:09:43;;;;;;;5.32;1.55;;;6.70;99.90;;;;;;5014999;28;20045;-80
2024/01/05 00:12:09;;;;;;;5.63;1.13;;;6.70;99.90;;;;;;5017628;28;20385;-80
2024/01/05 00:14:37;;;;;;;10.77;1.58;;;6.70;99.90;;;;;;5016677;28;20476;-80
2024/01/05 00:17:10;;;;;;;5.90;1.30;;;6.70;99.90;;;;;;5012325;28;20019;-81
2024/01/05 00:19:35;;;;;;;5.57;1.38;;;6.70;99.90;;;;;;5016936;28;20061;-80
2024/01/05 00:22:01;;;;;;;5.00;1.33;;;6.70;99.90;;;;;;5017698;28;20018;-80
2024/01/05 00:24:35;;;;;;;6.28;1.30;;;6.70;99.90;;;;;;5015368;28;20037;-81
2024/01/05 00:27:04;;;;;;;5.63;2.00;;;6.70;99.90;;;;;;5016798;28;20048;-82
2024/01/05 00:29:29;;;;;;;8.57;1.40;;;6.60;99.90;;;;;;5013619;28;20030;-81
2024/01/05 00:32:01;;;;;;;3.47;1.48;;;6.60;99.90;;;;;;5013339;28;20503;-80
2024/01/05 00:34:29;;;;;;;5.75;1.17;;;6.60;99.90;;;;;;5014391;28;20041;-77
2024/01/05 00:36:58;;;;;;;3.13;1.10;;;6.60;99.90;;;;;;5016465;28;20038;-78
2024/01/05 00:39:24;;;;;;;4.57;1.75;;;6.60;99.90;;;;;;5016523;28;20044;-79
2024/01/05 00:41:52;;;;;;;4.28;1.15;;;6.60;99.90;;;;;;5020091;28;20026;-79
2024/01/05 00:44:18;;;;;;;4.32;0.95;;;6.60;99.90;;;;;;5016113;28;20400;-81
2024/01/05 00:46:43;;;;;;;5.47;1.40;;;6.60;99.90;;;;;;5019028;28;20034;-80
2024/01/05 00:49:12;;;;;;;5.72;1.52;;;6.60;99.90;;;;;;5016413;28;20119;-78
2024/01/05 00:51:43;;;;;;;4.88;1.17;;;6.60;99.90;;;;;;5017758;28;20029;-78
2024/01/05 00:54:12;;;;;;;5.20;1.33;;;6.60;99.90;;;;;;5005777;28;20033;-81
2024/01/05 00:56:38;;;;;;;5.28;1.63;;;6.60;99.90;;;;;;5014758;28;20034;-80
2024/01/05 00:59:05;;;;;;;5.13;1.00;;;6.60;99.90;;;;;;5015771;28;20531;-81
2024/01/05 01:01:31;;;;;;;2.63;0.88;;;6.60;99.90;;;;;;5009969;28;20014;-82
2024/01/05 01:03:56;;;;;;;5.45;1.42;;;6.60;99.90;;;;;;5012483;28;20108;-83
2024/01/05 01:06:22;;;;;;;5.93;1.33;;;6.60;99.90;;;;;;5014727;28;20049;-82
2024/01/05 01:08:48;;;;;;;3.67;1.27;;;6.60;99.90;;;;;;5013590;28;20029;-83
2024/01/05 01:11:14;;;;;;;5.50;1.50;;;6.60;99.90;;;;;;5012374;28;20028;-81
2024/01/05 01:13:44;;;;;;;4.68;1.02;;;6.60;99.90;;;;;;5012442;28;20041;-77
2024/01/05 01:16:10;;;;;;;5.30;1.20;;;6.70;99.90;;;;;;5012099;28;20071;-80
2024/01/05 01:18:42;;;;;;;4.50;1.00;;;6.70;99.90;;;;;;5009912;28;20129;-79
2024/01/05 01:21:08;;;;;;;5.40;1.08;;;6.70;99.90;;;;;;5010525;28;20034;-79
2024/01/05 01:23:33;;;;;;;4.85;1.20;;;6.70;99.90;;;;;;5013311;28;20116;-79
2024/01/05 01:25:59;;;;;;;5.78;1.25;;;6.70;99.90;;;;;;5011886;28;20037;-79
2024/01/05 01:28:24;;;;;;;7.30;2.00;;;6.70;99.90;;;;;;5016383;28;20029;-79
2024/01/05 01:30:50;;;;;;;5.07;0.93;;;6.70;99.90;;;;;;5016989;28;20554;-80
2024/01/05 01:33:15;;;;;;;2.72;1.20;;;6.70;99.90;;;;;;5017290;28;20052;-81
2024/01/05 01:35:44;;;;;;;5.45;1.08;;;6.70;99.90;;;;;;5015123;28;20029;-81
2024/01/05 01:38:10;;;;;;;3.80;1.15;;;6.70;99.90;;;;;;5014514;28;20030;-82
2024/01/05 01:40:35;;;;;;;10.60;1.40;;;6.80;99.90;;;;;;5017380;28;20080;-81
2024/01/05 01:43:04;;;;;;;5.25;1.40;;;6.70;99.90;;;;;;5014503;28;20093;-82
2024/01/05 01:45:32;;;;;;;8.05;2.10;;;6.70;99.90;;;;;;5016706;28;20076;-81
2024/01/05 01:47:58;;;;;;;4.38;1.35;;;6.80;99.90;;;;;;5018807;28;20083;-80
2024/01/05 01:50:24;;;;;;;9.55;1.95;;;6.80;99.90;;;;;;5014448;28;20045;-83
2024/01/05 01:52:50;;;;;;;5.05;1.35;;;6.80;99.90;;;;;;5012685;28;20042;-81
2024/01/05 01:55:17;;;;;;;6.43;1.30;;;6.80;99.90;;;;;;5012006;28;20624;-82
2024/01/05 01:57:43;;;;;;;4.80;1.20;;;6.80;99.90;;;;;;5012515;28;20036;-81
2024/01/05 02:00:09;;;;;;;5.13;1.45;;;6.80;99.90;;;;;;5012798;28;20022;-79
2024/01/05 02:02:40;;;;;;;6.85;1.75;;;6.80;99.90;;;;;;5010582;28;20084;-81
2024/01/05 02:05:09;;;;;;;8.07;1.85;;;6.80;99.90;;;;;;5031051;28;20049;-79
2024/01/05 02:07:38;;;;;;;3.30;1.30;;;6.80;99.90;;;;;;5011205;28;20053;-79
2024/01/05 02:10:07;;;;;;;8.00;1.73;;;6.80;99.90;;;;;;5013818;28;20174;-78
2024/01/05 02:12:32;;;;;;;5.80;1.30;;;6.80;99.90;;;;;;5015557;28;20029;-79
2024/01/05 02:14:58;;;;;;;5.50;1.13;;;6.80;99.90;;;;;;5015227;28;20030;-78
2024/01/05 02:17:31;;;;;;;5.53;1.20;;;6.80;99.90;;;;;;5016123;28;20105;-80
2024/01/05 02:20:03;;;;;;;5.95;1.27;;;6.90;99.90;;;;;;5031554;28;20026;-79
2024/01/05 02:22:31;;;;;;;4.35;1.00;;;6.90;99.90;;;;;;5044929;23;20045;-74
2024/01/05 02:24:57;;;;;;;4.85;1.05;;;6.90;99.90;;;;;;5053215;28;20025;-72
2024/01/05 02:27:29;;;;;;;3.53;0.90;;;6.90;99.90;;;;;;5050974;28;20622;-73
2024/01/05 02:29:55;;;;;;;5.07;0.90;;;6.90;99.90;;;;;;5051194;28;20025;-73
2024/01/05 02:32:24;;;;;;;4.20;1.45;;;6.90;99.90;;;;;;5052684;28;20029;-73
2024/01/05 02:34:52;;;;;;;4.70;0.88;;;6.90;99.90;;;;;;5052330;28;20033;-74
2024/01/05 02:37:18;;;;;;;3.53;0.90;;;6.90;99.90;;;;;;5052015;28;20025;-74
2024/01/05 02:39:43;;;;;;;7.28;1.05;;;6.90;99.90;;;;;;5052157;28;20546;-73
2024/01/05 02:42:09;;;;;;;3.65;0.70;;;6.90;99.90;;;;;;5053101;28;20044;-73
2024/01/05 02:44:34;;;;;;;2.67;0.90;;;6.90;99.90;;;;;;5052651;28;20025;-75
2024/01/05 02:47:00;;;;;;;5.35;1.20;;;6.90;99.90;;;;;;5052827;28;20032;-74
2024/01/05 02:49:25;;;;;;;3.83;1.15;;;6.90;99.90;;;;;;5052997;28;20029;-73
2024/01/05 02:51:51;;;;;;;8.95;1.88;;;6.90;99.90;;;;;;5056324;28;20060;-73
2024/01/05 02:54:16;;;;;;;9.10;3.53;;;6.90;99.90;;;;;;5056343;28;20031;-73
2024/01/05 02:56:42;;;;;;;10.23;4.15;;;6.80;99.90;;;;;;5055091;28;20116;-73
2024/01/05 02:59:08;;;;;;;11.63;4.07;;;6.70;99.90;;;;;;5056140;28;20024;-73
2024/01/05 03:01:33;;;;;;;11.45;3.85;;;6.60;99.90;;;;;;5055805;28;20017;-74
2024/01/05 03:04:00;;;;;;;11.88;3.85;;;6.50;99.90;;;;;;5056072;28;20391;-73
2024/01/05 03:06:32;;;;;;;9.07;4.28;;;6.40;99.90;;;;;;5056338;28;20036;-73
2024/01/05 03:08:57;;;;;;;9.95;3.22;;;6.40;99.90;;;;;;5055724;28;20060;-74
2024/01/05 03:11:23;;;;;;;10.02;3.90;;;6.30;99.90;;;;;;5056743;28;20100;-73
2024/01/05 03:13:58;;;;;;;10.93;3.67;;;6.20;99.90;;;;;;5055541;28;20112;-73
2024/01/05 03:16:23;;;;;;;7.45;3.25;;;6.20;99.90;;;;;;5055649;28;20098;-74
2024/01/05 03:18:49;;;;;;;8.00;3.50;;;6.20;99.90;;;;;;5054389;28;20059;-75
2024/01/05 03:21:14;;;;;;;9.52;3.83;;;6.10;99.90;;;;;;5055896;28;20025;-74
2024/01/05 03:23:40;;;;;;;7.40;3.90;;;6.10;99.90;;;;;;5055964;28;20036;-75
2024/01/05 03:26:09;;;;;;;9.65;4.07;;;6.10;99.90;;;;;;5055913;28;20128;-76
2024/01/05 03:28:36;;;;;;;8.25;3.33;;;6.00;99.90;;;;;;5055628;28;20421;-75
2024/01/05 03:31:01;;;;;;;9.15;3.40;;;6.00;99.90;;;;;;5034334;28;20036;-75
2024/01/05 03:33:30;;;;;;;11.02;3.22;;;6.00;99.90;;;;;;5051919;28;20029;-75
2024/01/05 03:35:59;;;;;;;8.95;3.72;;;6.00;99.90;;;;;;5046805;28;20022;-74
2024/01/05 03:38:27;;;;;;;9.00;3.53;;;6.00;99.90;;;;;;5055584;28;20091;-74
2024/01/05 03:40:53;;;;;;;12.15;3.95;;;6.00;99.90;;;;;;5055825;28;20021;-73
2024/01/05 03:43:19;;;;;;;11.45;3.50;;;6.00;99.90;;;;;;5055536;28;20107;-74
2024/01/05 03:45:44;;;;;;;12.25;3.20;;;5.90;99.90;;;;;;5054890;28;20017;-74
2024/01/05 03:48:14;;;;;;;9.50;3.40;;;5.90;99.90;;;;;;5052236;28;20025;-75
2024/01/05 03:50:42;;;;;;;7.00;3.30;;;5.90;99.90;;;;;;5052141;28;20368;-74
2024/01/05 03:53:08;;;;;;;13.63;3.85;;;5.90;99.90;;;;;;5066546;28;20034;-74
2024/01/05 03:55:34;;;;;;;10.15;3.78;;;5.90;99.90;;;;;;5052889;28;20036;-74
2024/01/05 03:58:00;;;;;;;6.50;3.58;;;5.90;99.90;;;;;;5054129;28;20025;-74
2024/01/05 04:00:25;;;;;;;8.63;4.05;;;5.80;99.90;;;;;;5055114;28;20702;-75
2024/01/05 04:02:51;;;;;;;8.38;3.58;;;5.80;99.90;;;;;;5053306;28;20021;-74
2024/01/05 04:05:17;;;;;;;10.38;3.58;;;5.80;99.90;;;;;;5055190;28;20025;-73
2024/01/05 04:07:45;;;;;;;8.02;3.15;;;5.80;99.90;;;;;;5055198;28;20029;-74
2024/01/05 04:10:11;;;;;;;10.50;3.42;;;5.80;99.90;;;;;;5055304;28;20059;-74
2024/01/05 04:12:40;;;;;;;9.57;3.97;;;5.70;99.90;;;;;;5054948;28;20025;-74
2024/01/05 04:15:06;;;;;;;8.65;3.03;;;5.70;99.90;;;;;;5054377;28;20102;-75
2024/01/05 04:17:31;;;;;;;8.45;3.03;;;5.70;99.90;;;;;;5055064;28;20029;-73
2024/01/05 04:19:57;;;;;;;11.52;3.28;;;5.60;99.90;;;;;;5052537;28;20071;-73
2024/01/05 04:22:23;;;;;;;12.55;4.07;;;5.60;99.90;;;;;;5051198;28;20025;-75
2024/01/05 04:24:48;;;;;;;10.27;3.78;;;5.60;99.90;;;;;;5051873;28;20029;-74
2024/01/05 04:27:20;;;;;;;8.75;3.17;;;5.60;99.90;;;;;;5051840;28;20363;-75
2024/01/05 04:29:46;;;;;;;7.20;2.83;;;5.60;99.90;;;;;;5055214;28;20036;-74
2024/01/05 04:32:11;;;;;;;9.82;2.88;;;5.60;99.90;;;;;;5054698;28;20025;-73
2024/01/05 04:34:37;;;;;;;7.68;3.30;;;5.60;99.90;;;;;;5052824;28;20182;-74
2024/01/05 04:37:03;;;;;;;9.25;3.17;;;5.60;99.90;;;;;;5054187;28;20037;-74
2024/01/05 04:39:29;;;;;;;11.73;3.35;;;5.60;99.90;;;;;;5054132;28;20071;-74
2024/01/05 04:41:54;;;;;;;13.82;3.63;;;5.60;99.90;;;;;;5053605;28;20379;-74
2024/01/05 04:44:20;;;;;;;9.73;3.90;;;5.60;99.90;;;;;;5054144;28;20025;-74
2024/01/05 04:46:45;;;;;;;8.30;3.40;;;5.50;99.90;;;;;;5054438;28;20420;-73
2024/01/05 04:49:11;;;;;;;8.20;2.90;;;5.50;99.90;;;;;;5053881;28;20033;-74
2024/01/05 04:51:42;;;;;;;9.18;3.70;;;5.50;99.90;;;;;;5054190;28;20029;-74
2024/01/05 04:54:08;;;;;;;8.02;3.95;;;5.50;99.90;;;;;;5051718;28;20060;-74
2024/01/05 04:56:39;;;;;;;13.32;3.72;;;5.50;99.90;;;;;;5054085;28;20403;-74
2024/01/05 04:59:08;;;;;;;7.07;3.22;;;5.50;99.90;;;;;;5054230;28;20017;-74
2024/01/05 05:01:33;;;;;;;13.57;3.97;;;5.50;99.90;;;;;;5054053;28;20380;-74
2024/01/05 05:03:59;;;;;;;12.10;4.07;;;5.50;99.90;;;;;;5054118;28;20023;-74
2024/01/05 05:06:24;;;;;;;8.73;3.88;;;5.50;99.90;;;;;;5054272;28;20560;-74
2024/01/05 05:08:50;;;;;;;8.80;3.72;;;5.50;99.90;;;;;;5053955;28;20025;-74
2024/01/05 05:11:16;;;;;;;8.88;3.15;;;5.50;99.90;;;;;;5053129;28;20029;-75
2024/01/05 05:13:45;;;;;;;9.38;3.33;;;5.50;99.90;;;;;;5053773;28;20017;-75
2024/01/05 05:16:10;;;;;;;5.72;3.15;;;5.50;99.90;;;;;;5053872;28;20083;-75
2024/01/05 05:18:36;;;;;;;16.02;4.10;;;5.50;99.90;;;;;;5053782;28;20029;-75
2024/01/05 05:21:05;;;;;;;13.85;3.35;;;5.40;99.90;;;;;;5053604;28;20418;-74
2024/01/05 05:23:31;;;;;;;9.07;3.35;;;5.50;99.90;;;;;;5052061;28;20036;-73
2024/01/05 05:25:57;;;;;;;11.60;3.38;;;5.50;99.90;;;;;;5053583;28;20060;-74
2024/01/05 05:28:23;;;;;;;10.88;3.78;;;5.40;99.90;;;;;;5052348;28;20029;-72
2024/01/05 05:30:49;;;;;;;8.40;3.08;;;5.40;99.90;;;;;;5059356;28;20024;-74
2024/01/05 05:33:15;;;;;;;11.10;3.35;;;5.40;99.90;;;;;;5062722;28;20056;-73
2024/01/05 05:35:40;;;;;;;8.38;4.10;;;5.40;99.90;;;;;;5053245;28;20033;-74
2024/01/05 05:38:06;;;;;;;7.20;3.38;;;5.40;99.90;;;;;;5053401;28;20384;-74
2024/01/05 05:40:32;;;;;;;13.20;3.88;;;5.40;99.90;;;;;;5053450;28;20033;-73
2024/01/05 05:42:58;;;;;;;13.25;3.22;;;5.30;99.90;;;;;;5053160;28;20045;-73
2024/01/05 05:45:38;;;;;;;13.90;3.42;;;5.30;99.90;;;;;;5052863;28;20024;-73
2024/01/05 05:48:04;;;;;;;9.35;3.17;;;5.30;99.90;;;;;;5052887;28;20340;-73
2024/01/05 05:50:30;;;;;;;7.13;2.85;;;5.20;99.90;;;;;;5051872;28;20146;-73
2024/01/05 05:52:56;;;;;;;10.70;3.25;;;5.20;99.90;;;;;;5053044;28;20055;-73
2024/01/05 05:55:21;;;;;;;10.23;3.42;;;5.20;99.90;;;;;;5052904;28;20024;-73
2024/01/05 05:57:47;;;;;;;11.80;4.07;;;5.20;99.90;;;;;;5053048;28;20491;-73
2024/01/05 06:00:13;;;;;;;15.07;4.18;;;5.20;99.90;;;;;;5053143;28;20040;-73
2024/01/05 06:02:39;;;;;;;12.48;4.57;;;5.20;99.90;;;;;;5053074;28;20100;-74
2024/01/05 06:05:05;;;;;;;9.77;3.83;;;5.20;99.90;;;;;;5053365;28;20064;-74
2024/01/05 06:07:31;;;;;;;15.07;3.90;;;5.20;99.90;;;;;;5051891;28;20033;-74
2024/01/05 06:09:59;;;;;;;13.35;4.03;;;5.20;99.90;;;;;;5051902;28;20509;-75
2024/01/05 06:12:28;;;;;;;11.13;3.70;;;5.20;99.90;;;;;;5052857;28;20032;-73
2024/01/05 06:14:56;;;;;;;8.57;3.58;;;5.20;99.90;;;;;;5053004;28;20033;-74
2024/01/05 06:17:22;;;;;;;8.98;3.50;;;5.20;99.90;;;;;;5052730;28;20029;-75
2024/01/05 06:19:47;;;;;;;14.80;4.13;;;5.20;99.90;;;;;;5052371;28;20074;-75
2024/01/05 06:22:13;;;;;;;11.45;3.70;;;5.30;99.90;;;;;;5052893;28;20029;-76
2024/01/05 06:24:45;;;;;;;9.07;3.45;;;5.30;99.90;;;;;;5053042;28;20060;-76
2024/01/05 06:27:17;;;;;;;10.65;3.40;;;5.30;99.90;;;;;;5053123;28;20399;-75
2024/01/05 06:29:42;;;;;;;7.50;3.10;;;5.30;99.90;;;;;;5052406;28;20029;-74
2024/01/05 06:32:08;;;;;;;10.75;3.65;;;5.30;99.90;;;;;;5053716;28;20078;-73
2024/01/05 06:34:34;;;;;;;16.42;4.43;;;5.30;99.90;;;;;;5052909;28;20024;-73
2024/01/05 06:37:00;;;;;;;11.07;3.97;;;5.30;99.90;;;;;;5053958;28;20105;-73
2024/01/05 06:39:25;;;;;;;10.40;3.92;;;5.30;99.90;;;;;;5053335;28;20036;-74
2024/01/05 06:41:54;;;;;;;10.18;3.78;;;5.30;99.90;;;;;;5054473;28;20052;-74
2024/01/05 06:44:19;;;;;;;10.82;3.60;;;5.30;99.90;;;;;;5053820;28;20387;-76
2024/01/05 06:46:50;;;;;;;11.80;3.45;;;5.30;99.90;;;;;;5054444;28;20025;-75
2024/01/05 06:49:16;;;;;;;8.50;3.72;;;5.30;99.90;;;;;;5046867;28;20790;-70
2024/01/05 06:51:45;;;;;;;9.60;3.60;;;5.30;99.90;;;;;;5044350;28;20053;-71
2024/01/05 06:54:13;;;;;;;10.20;3.60;;;5.40;99.90;;;;;;5046184;28;20036;-71
2024/01/05 06:56:45;;;;;;;10.88;3.95;;;5.40;99.90;;;;;;5048638;28;20025;-71
2024/01/05 06:59:10;;;;;;;8.95;3.90;;;5.40;99.90;;;;;;5050216;28;20112;-74
2024/01/05 07:01:39;;;;;;;9.18;3.65;;;5.40;99.90;;;;;;5053845;28;20041;-76
2024/01/05 07:04:07;;;;;;;11.15;4.43;;;5.50;99.90;;;;;;5051852;28;20025;-76
2024/01/05 07:06:40;;;;;;;8.00;3.28;;;5.50;99.90;;;;;;5052822;28;20104;-76
2024/01/05 07:09:09;;;;;;;10.55;3.33;;;5.50;99.90;;;;;;5054060;28;20028;-77
2024/01/05 07:11:34;;;;;;;10.35;3.35;;;5.60;99.90;;;;;;5055230;28;20116;-77
2024/01/05 07:14:01;;;;;;;9.57;3.40;;;5.60;99.90;;;;;;5053216;28;20049;-76
2024/01/05 07:16:26;;;;;;;11.05;4.05;;;5.60;99.90;;;;;;5052879;28;20486;-75
2024/01/05 07:18:53;;;;;;;12.85;4.85;;;5.70;99.90;;;;;;5052141;28;20448;-76
2024/01/05 07:21:22;;;;;;;10.32;4.20;;;5.70;99.90;;;;;;5053470;28;20013;-76
2024/01/05 07:23:48;;;;;;;13.63;4.88;;;5.70;99.90;;;;;;5052242;28;20104;-75
2024/01/05 07:26:23;;;;;;;14.25;5.07;;;5.70;99.90;;;;;;5050473;28;20091;-73
2024/01/05 07:28:49;;;;;;;16.67;5.95;;;5.70;99.90;;;;;;5051776;28;20070;-74
2024/01/05 07:31:14;;;;;;;11.90;4.85;;;5.70;99.90;;;;;;5052605;28;20099;-74
2024/01/05 07:33:40;;;;;;;15.13;5.38;;;5.70;99.90;;;;;;5052661;28;20029;-76
2024/01/05 07:36:13;;;;;;;13.23;5.60;;;5.70;99.90;;;;;;5054533;28;20106;-75
2024/01/05 07:38:39;;;;;;;11.43;4.82;;;5.70;99.90;;;;;;5057204;28;20507;-75
2024/01/05 07:41:04;;;;;;;12.38;4.55;;;5.70;99.90;;;;;;5056055;28;20071;-76
2024/01/05 07:43:30;;;;;;;15.60;4.72;;;5.70;99.90;;;;;;5055152;28;20395;-75
2024/01/05 07:45:56;;;;;;;13.70;5.15;;;5.70;99.90;;;;;;5056983;28;20452;-75
2024/01/05 07:48:22;;;;;;;14.93;5.80;;;5.70;99.90;;;;;;5056860;28;20029;-75
2024/01/05 07:50:48;;;;;;;13.05;4.82;;;5.70;99.90;;;;;;5057205;28;20021;-76
2024/01/05 07:53:16;;;;;;;8.05;3.55;;;5.80;99.90;;;;;;5057161;28;20033;-77
2024/01/05 07:55:42;;;;;;;8.82;3.80;;;5.80;99.90;;;;;;5056597;28;20376;-76
2024/01/05 07:58:11;;;;;;;9.52;3.03;;;5.80;99.90;;;;;;5055226;28;20033;-76
2024/01/05 08:00:37;;;;;;;6.57;2.50;;;5.90;99.90;;;;;;5056647;28;20032;-76
2024/01/05 08:03:05;;;;;;;7.88;2.53;;;5.90;99.90;;;;;;5055196;28;20491;-75
2024/01/05 08:05:30;;;;;;;13.10;2.95;;;5.90;99.90;;;;;;5056023;28;20040;-75
2024/01/05 08:07:56;;;;;;;10.30;3.13;;;6.00;99.90;;;;;;5056935;28;20033;-76
2024/01/05 08:10:22;;;;;;;7.43;3.00;;;6.00;99.90;;;;;;5056282;28;20036;-76
2024/01/05 08:12:48;;;;;;;9.70;2.88;;;6.10;99.90;;;;;;5056090;28;20052;-77
2024/01/05 08:15:13;;;;;;;11.15;3.80;;;6.10;99.90;;;;;;5057678;28;20086;-76
2024/01/05 08:17:45;;;;;;;15.98;4.18;;;6.20;99.90;;;;;;5057678;28;20032;-75
2024/01/05 08:20:11;;;;;;;12.63;4.68;;;6.20;99.90;;;;;;5056542;28;20028;-76
2024/01/05 08:22:39;;;;;;;15.93;4.93;;;6.20;99.90;;;;;;5051759;28;20026;-78
2024/01/05 08:25:14;;;;;;;9.30;4.80;;;6.20;99.90;;;;;;5049531;28;20040;-76
2024/01/05 08:27:40;;;;;;;9.32;4.63;;;6.20;99.90;;;;;;5056442;28;20407;-76
2024/01/05 08:30:07;;;;;;;9.15;4.07;;;6.20;99.90;;;;;;5056931;28;20028;-77
2024/01/05 08:32:33;;;;;;;12.02;4.65;;;6.10;99.90;;;;;;5057153;28;20074;-77
2024/01/05 08:34:59;;;;;;;13.15;5.53;;;6.20;99.90;;;;;;5056836;28;20029;-77
2024/01/05 08:37:25;;;;;;;11.80;3.47;;;6.20;99.90;;;;;;5057241;28;20029;-76
2024/01/05 08:39:50;;;;;;;8.52;4.65;;;6.20;99.90;;;;;;5057243;28;20055;-76
2024/01/05 08:42:16;;;;;;;7.70;4.10;;;6.20;99.90;;;;;;5052482;28;20481;-76
2024/01/05 08:44:42;;;;;;;9.98;4.43;;;6.20;99.90;;;;;;5049553;28;20025;-77
2024/01/05 08:47:07;;;;;;;14.25;5.47;;;6.10;99.90;;;;;;5050912;28;20361;-77
2024/01/05 08:49:34;;;;;;;13.82;5.03;;;6.10;99.90;;;;;;5059414;28;20064;-78
2024/01/05 08:52:00;;;;;;;10.15;4.53;;;6.00;99.90;;;;;;5056465;28;20033;-79
2024/01/05 08:54:28;;;;;;;13.30;4.10;;;5.90;99.90;;;;;;5057899;28;20099;-77
2024/01/05 08:56:54;;;;;;;9.35;3.97;;;5.80;99.90;;;;;;5056080;28;20033;-77
2024/01/05 08:59:20;;;;;;;8.05;3.90;;;5.80;99.90;;;;;;5055413;28;20583;-78
2024/01/05 09:01:48;;;;;;;11.13;3.92;;;5.80;99.90;;;;;;5057183;28;20502;-77
2024/01/05 09:04:14;;;;;;;8.73;4.53;;;5.80;99.90;;;;;;5054540;28;20072;-76
2024/01/05 09:06:46;;;;;;;5.57;3.42;;;5.80;99.90;;;;;;5054950;28;20330;-78
2024/01/05 09:09:15;;;;;;;14.38;3.10;;;5.80;99.90;;;;;;5047219;28;20032;-78
2024/01/05 09:11:41;;;;;;;6.90;3.08;;;5.80;99.90;;;;;;5055668;28;20032;-77
2024/01/05 09:14:09;;;;;;;11.88;2.88;;;5.90;99.90;;;;;;5055899;28;20040;-76
2024/01/05 09:16:36;;;;;;;7.88;2.80;;;5.90;99.90;;;;;;5054402;28;20031;-77
2024/01/05 09:19:01;;;;;;;13.70;3.45;;;5.90;99.90;;;;;;5046621;28;20056;-76
2024/01/05 09:21:28;;;;;;;10.38;3.40;;;6.00;99.90;;;;;;5057278;28;20059;-78
2024/01/05 09:23:53;;;;;;;9.68;3.35;;;6.00;99.90;;;;;;5057497;28;20037;-78
2024/01/05 09:26:19;;;;;;;6.63;3.22;;;6.00;99.90;;;;;;5054535;28;20155;-77
2024/01/05 09:28:47;;;;;;;7.22;2.55;;;6.10;99.90;;;;;;5051322;28;20038;-77
2024/01/05 09:31:13;;;;;;;7.20;2.50;;;6.10;99.90;;;;;;5053699;28;20035;-77
2024/01/05 09:33:39;;;;;;;8.73;3.13;;;6.20;99.90;;;;;;5051234;28;20029;-77
2024/01/05 09:36:05;;;;;;;6.18;3.33;;;6.20;99.90;;;;;;5050138;28;20025;-76
2024/01/05 09:38:35;;;;;;;9.52;2.92;;;6.20;99.90;;;;;;5054817;28;20028;-76
2024/01/05 09:41:02;;;;;;;9.00;3.75;;;6.30;99.90;;;;;;5052318;28;20037;-75
2024/01/05 09:43:27;;;;;;;9.25;3.15;;;6.30;99.90;;;;;;5050386;28;20040;-78
2024/01/05 09:45:55;;;;;;;10.07;3.20;;;6.30;99.90;;;;;;5052013;28;20033;-78
2024/01/05 09:48:22;;;;;;;9.05;3.15;;;6.40;99.90;;;;;;5054454;28;20476;-78
2024/01/05 09:50:53;;;;;;;6.95;2.90;;;6.40;99.90;;;;;;5056086;28;20024;-77
2024/01/05 09:53:19;;;;;;;6.00;3.13;;;6.40;99.90;;;;;;5054727;28;20033;-78
2024/01/05 09:55:49;;;;;;;5.63;2.60;;;6.50;99.90;;;;;;5055875;28;20476;-77
2024/01/05 09:58:15;;;;;;;6.93;2.90;;;6.50;99.90;;;;;;5052822;28;20032;-79
2024/01/05 10:00:49;;;;;;;10.88;2.45;;;6.50;99.90;;;;;;5067039;28;20021;-76
2024/01/05 10:03:20;;;;;;;6.72;3.45;;;6.60;99.90;;;;;;5053675;28;20372;-77
2024/01/05 10:05:50;;;;;;;10.15;3.75;;;6.60;99.90;;;;;;5050792;28;20071;-78
2024/01/05 10:08:22;;;;;;;9.07;4.50;;;6.70;99.90;;;;;;5052051;28;20032;-77
2024/01/05 10:10:55;;;;;;;11.48;5.22;;;6.70;99.90;;;;;;5050167;28;20052;-78
2024/01/05 10:13:21;;;;;;;12.20;5.43;;;6.80;99.90;;;;;;5047729;28;20032;-77
2024/01/05 10:15:55;;;;;;;20.55;6.18;;;6.90;99.90;;;;;;5047765;28;20036;-77
2024/01/05 10:18:21;;;;;;;14.02;4.93;;;6.90;99.90;;;;;;5050788;28;20077;-77
2024/01/05 10:20:47;;;;;;;10.15;4.20;;;7.00;99.90;;;;;;5048864;28;20108;-78
2024/01/05 10:23:13;;;;;;;7.95;4.10;;;7.00;99.90;;;;;;5046600;28;20420;-76
2024/01/05 10:25:39;;;;;;;7.57;3.22;;;7.00;99.90;;;;;;5047882;28;20025;-78
2024/01/05 10:28:26;;;;;;;12.27;5.40;;;7.00;99.90;;;;;;5044024;28;20074;-76
2024/01/05 10:31:13;;;;;;;15.88;4.40;;;7.00;99.90;;;;;;5047358;28;20033;-76
2024/01/05 10:33:52;;;;;;;13.10;4.20;;;7.00;99.90;;;;;;5042977;28;20086;-76
2024/01/05 10:36:19;;;;;;;11.38;3.85;;;7.00;99.90;;;;;;5043984;28;20033;-76
2024/01/05 10:38:46;;;;;;;8.07;4.10;;;7.00;99.90;;;;;;5043659;28;20021;-77
2024/01/05 10:41:12;;;;;;;11.38;4.05;;;7.00;99.90;;;;;;5049381;28;20013;-75
2024/01/05 10:43:41;;;;;;;15.38;4.90;;;7.00;99.90;;;;;;5049825;28;20043;-78
2024/01/05 10:46:11;;;;;;;12.07;4.78;;;7.00;99.90;;;;;;5044412;28;20024;-76
2024/01/05 10:48:39;;;;;;;10.18;4.22;;;7.00;99.90;;;;;;5040529;28;20484;-76
2024/01/05 10:51:06;;;;;;;9.98;4.55;;;7.10;99.90;;;;;;5042414;28;20434;-75
2024/01/05 10:53:38;;;;;;;13.25;4.90;;;7.10;99.90;;;;;;5046688;28;20436;-76
2024/01/05 10:56:06;;;;;;;10.73;4.57;;;7.10;99.90;;;;;;5047558;28;20033;-76
2024/01/05 10:58:32;;;;;;;7.93;4.65;;;7.20;99.90;;;;;;5045278;28;20116;-76
2024/01/05 11:01:02;;;;;;;7.63;4.18;;;7.20;99.90;;;;;;5045504;28;20100;-76
2024/01/05 11:03:39;;;;;;;11.43;4.60;;;7.20;99.90;;;;;;5046777;28;20049;-75
2024/01/05 11:06:08;;;;;;;16.63;6.32;;;7.20;99.90;;;;;;5044047;28;20026;-77
2024/01/05 11:08:51;;;;;;;15.15;6.03;;;7.30;99.90;;;;;;5044106;28;20068;-75
2024/01/05 11:11:42;;;;;;;12.50;5.38;;;7.30;99.90;;;;;;5047872;28;20029;-76
2024/01/05 11:14:32;;;;;;;16.33;5.75;;;7.30;99.90;;;;;;5048352;28;20040;-76
2024/01/05 11:17:33;;;;;;;15.45;6.00;;;7.30;99.90;;;;;;5047011;28;20036;-76
2024/01/05 11:20:36;;;;;;;15.32;5.57;;;7.30;99.90;;;;;;5011403;28;20037;-77
2024/01/05 11:23:03;;;;;;;9.95;4.45;;;7.40;99.90;;;;;;5050344;28;20082;-76
2024/01/05 11:25:29;;;;;;;12.13;4.20;;;7.40;99.90;;;;;;5050859;28;20024;-76
2024/01/05 11:27:57;;;;;;;8.98;4.30;;;7.40;99.90;;;;;;5050652;28;20040;-76
2024/01/05 11:30:40;;;;;;;9.38;4.05;;;7.40;99.90;;;;;;5050583;28;20028;-76
2024/01/05 11:33:08;;;;;;;12.23;5.03;;;7.40;99.90;;;;;;5062924;28;20470;-76
2024/01/05 11:35:44;;;;;;;7.05;3.80;;;7.40;99.90;;;;;;5049460;28;20065;-76
2024/01/05 11:38:29;;;;;;;8.23;3.67;;;7.40;99.90;;;;;;5049678;28;20025;-77
2024/01/05 11:40:55;;;;;;;12.00;5.43;;;7.50;99.90;;;;;;5048278;28;20393;-76
2024/01/05 11:43:38;;;;;;;18.75;5.47;;;7.50;99.90;;;;;;5048977;28;20153;-76
2024/01/05 11:46:07;;;;;;;10.13;5.28;;;7.50;99.90;;;;;;5047734;28;20029;-76
2024/01/05 11:48:47;;;;;;;11.05;4.57;;;7.50;99.90;;;;;;5048749;28;20052;-75
2024/01/05 11:51:13;;;;;;;10.23;4.20;;;7.60;99.90;;;;;;5051283;28;20039;-76
2024/01/05 11:53:43;;;;;;;11.65;5.45;;;7.60;99.90;;;;;;5051143;28;20037;-75
2024/01/05 11:56:11;;;;;;;15.75;4.60;;;7.60;99.90;;;;;;5050135;28;20033;-75
2024/01/05 11:58:42;;;;;;;10.13;4.80;;;7.60;99.90;;;;;;5052908;28;20067;-77
2024/01/05 12:01:10;;;;;;;11.75;5.47;;;7.70;99.90;;;;;;5049307;28;20031;-77
2024/01/05 12:03:38;;;;;;;11.73;4.80;;;7.70;99.90;;;;;;5047951;28;20028;-76
2024/01/05 12:06:11;;;;;;;12.45;5.93;;;7.80;99.90;;;;;;5046332;28;20079;-75
2024/01/05 12:08:38;;;;;;;14.00;6.23;;;7.80;99.90;;;;;;5051914;28;20029;-77
2024/01/05 12:11:11;;;;;;;14.30;6.13;;;7.80;99.90;;;;;;5048069;28;20277;-76
2024/01/05 12:13:39;;;;;;;12.52;5.28;;;7.80;99.90;;;;;;5052028;28;20083;-77
2024/01/05 12:16:09;;;;;;;18.17;6.40;;;7.80;99.90;;;;;;5049878;28;20029;-77
2024/01/05 12:18:56;;;;;;;8.45;4.75;;;7.80;99.90;;;;;;5047655;28;20052;-76
2024/01/05 12:21:25;;;;;;;10.15;4.43;;;7.80;99.90;;;;;;5049054;28;20108;-76
2024/01/05 12:23:55;;;;;;;11.40;4.55;;;7.80;99.90;;;;;;5048238;28;20047;-76
2024/01/05 12:26:24;;;;;;;14.80;5.00;;;7.80;99.90;;;;;;5048713;28;20096;-76
2024/01/05 12:28:51;;;;;;;10.88;4.18;;;7.80;99.90;;;;;;5051705;28;20032;-76
2024/01/05 12:31:23;;;;;;;17.67;5.30;;;7.90;99.90;;;;;;5050787;28;20017;-76
2024/01/05 12:33:49;;;;;;;11.50;4.68;;;7.80;99.90;;;;;;5048887;28;20029;-75
2024/01/05 12:36:27;;;;;;;9.30;4.90;;;7.80;99.90;;;;;;5047702;28;20028;-76
2024/01/05 12:38:52;;;;;;;14.05;5.65;;;7.90;99.90;;;;;;5047912;28;20040;-75
2024/01/05 12:41:19;;;;;;;17.00;6.88;;;7.90;99.90;;;;;;5047399;28;20396;-76
2024/01/05 12:43:47;;;;;;;14.52;6.07;;;7.90;99.90;;;;;;5064078;28;20025;-76
2024/01/05 12:46:14;;;;;;;12.10;4.75;;;7.90;99.90;;;;;;5048742;28;20021;-77
2024/01/05 12:48:40;;;;;;;12.73;5.22;;;7.90;99.90;;;;;;5052603;28;20025;-77
2024/01/05 12:51:19;;;;;;;12.35;4.40;;;8.00;99.90;;;;;;5050050;28;20074;-77
2024/01/05 12:53:49;;;;;;;20.42;6.22;;;8.00;99.90;;;;;;5044586;28;20025;-77
2024/01/05 12:56:19;;;;;;;10.30;4.45;;;8.00;99.90;;;;;;5047555;28;20029;-77
2024/01/05 12:58:47;;;;;;;10.60;4.55;;;8.00;99.90;;;;;;5046738;28;20151;-77